Terminal Aerodrome Forecast
Issued by NWS Wakefield, VA

Home | Current Version | Previous Version | Text Only | Print | Product List | Glossary On
Versions: 1 2 3 4 5 6 7 8 9 10 11 12 13 14 15 16 17 18 19 20 21
000
FTUS41 KAKQ 222300
TAFECG
TAF
KECG 222340Z 2300/2324 10009KT P6SM VCSH SCT025 OVC040
      TEMPO 2300/2302 BKN015
     FM230300 22004KT P6SM SCT025 BKN100
     FM231000 24003KT 4SM BR OVC004
     FM231400 26005KT P6SM BKN015
     FM231600 23008KT P6SM SCT250=

USA.gov is the U.S. government's official web portal to all federal, state and local government web resources and services.